createdAt,value
2019-05-18T00:02:06.265Z,1.23
2019-05-18T00:04:34.788Z,1.13
2019-05-18T00:07:03.212Z,1.50
2019-05-18T00:09:31.551Z,1.50
2019-05-18T00:11:59.914Z,1.20
2019-05-18T00:14:28.369Z,1.20
2019-05-18T00:16:56.693Z,1.50
2019-05-18T00:19:25.094Z,1.40
2019-05-18T00:21:54.043Z,1.23
2019-05-18T00:24:22.401Z,1.50
2019-05-18T00:26:50.718Z,1.20
2019-05-18T00:29:19.179Z,1.10
2019-05-18T00:31:47.532Z,1.10
2019-05-18T00:34:15.855Z,1.10
2019-05-18T00:36:44.317Z,1.37
2019-05-18T00:39:12.632Z,1.20
2019-05-18T00:41:41.075Z,1.20
2019-05-18T00:44:09.758Z,1.30
2019-05-18T00:46:38.075Z,1.20
2019-05-18T00:49:06.475Z,1.27
2019-05-18T00:51:35.076Z,1.00
2019-05-18T00:54:03.562Z,1.20
2019-05-18T00:56:31.941Z,1.30
2019-05-18T00:59:00.526Z,1.10
2019-05-18T01:01:28.855Z,1.10
2019-05-18T01:03:57.178Z,1.17
2019-05-18T01:06:25.964Z,1.23
2019-05-18T01:08:54.317Z,0.90
2019-05-18T01:11:22.635Z,1.33
2019-05-18T01:13:51.107Z,1.03
2019-05-18T01:16:19.480Z,1.23
2019-05-18T01:18:47.831Z,1.00
2019-05-18T01:21:16.256Z,1.10
2019-05-18T01:23:44.556Z,1.20
2019-05-18T01:26:12.898Z,1.30
2019-05-18T01:28:41.498Z,1.17
2019-05-18T01:31:09.812Z,1.30
2019-05-18T01:33:38.146Z,1.20
2019-05-18T01:36:06.861Z,1.13
2019-05-18T01:38:35.191Z,1.30
2019-05-18T01:41:03.500Z,1.03
2019-05-18T01:43:32.382Z,1.50
2019-05-18T01:46:00.668Z,1.20
2019-05-18T01:48:28.998Z,1.23
2019-05-18T01:50:57.528Z,1.30
2019-05-18T01:53:25.842Z,1.10
2019-05-18T01:55:54.138Z,1.23
2019-05-18T01:58:22.828Z,1.53
2019-05-18T02:00:51.139Z,1.40
2019-05-18T02:03:19.463Z,1.60
2019-05-18T02:05:48.013Z,1.53
2019-05-18T02:08:16.352Z,1.40
2019-05-18T02:10:44.668Z,1.50
2019-05-18T02:13:13.138Z,1.47
2019-05-18T02:15:41.462Z,1.33
2019-05-18T02:18:09.816Z,1.10
2019-05-18T02:20:38.315Z,1.23
2019-05-18T02:23:06.627Z,1.50
2019-05-18T02:25:34.971Z,1.20
2019-05-18T02:28:03.811Z,1.30
2019-05-18T02:30:32.130Z,1.47
2019-05-18T02:33:00.447Z,1.10
2019-05-18T02:35:29.124Z,1.33
2019-05-18T02:38:01.700Z,1.40
2019-05-18T02:40:30.197Z,1.30
2019-05-18T02:42:58.696Z,1.30
2019-05-18T02:45:27.030Z,1.30
2019-05-18T02:47:55.620Z,1.40
2019-05-18T02:50:23.943Z,1.60
2019-05-18T02:52:52.390Z,1.50
2019-05-18T02:55:20.806Z,1.47
2019-05-18T02:57:49.142Z,1.57
2019-05-18T03:00:17.508Z,1.53
2019-05-18T03:02:46.061Z,1.67
2019-05-18T03:05:14.420Z,1.40
2019-05-18T03:07:42.756Z,1.50
2019-05-18T03:10:11.246Z,1.40
2019-05-18T03:12:39.592Z,1.37
2019-05-18T03:15:07.950Z,1.37
2019-05-18T03:17:36.301Z,1.27
2019-05-18T03:20:04.728Z,1.10
2019-05-18T03:22:33.358Z,1.83
2019-05-18T03:25:01.749Z,2.63
2019-05-18T03:27:30.124Z,1.40
2019-05-18T03:29:58.466Z,1.20
2019-05-18T03:32:27.185Z,1.40
2019-05-18T03:34:55.473Z,1.30
2019-05-18T03:37:23.843Z,1.27
2019-05-18T03:39:52.493Z,1.60
2019-05-18T03:42:21.027Z,1.30
2019-05-18T03:44:49.385Z,1.30
2019-05-18T03:47:17.917Z,1.50
2019-05-18T03:49:46.297Z,1.13
2019-05-18T03:52:14.608Z,1.30
2019-05-18T03:54:43.116Z,1.40
2019-05-18T03:57:11.463Z,1.37
2019-05-18T03:59:39.781Z,1.40
2019-05-18T04:02:08.366Z,1.53
2019-05-18T04:04:36.716Z,1.40
2019-05-18T04:07:05.072Z,1.50
2019-05-18T04:09:33.525Z,1.30
2019-05-18T04:12:01.871Z,1.43
2019-05-18T04:14:30.181Z,1.43
2019-05-18T04:16:58.789Z,1.50
2019-05-18T04:19:44.962Z,1.30
2019-05-18T04:21:55.682Z,1.37
2019-05-18T04:24:24.823Z,1.33
2019-05-18T04:26:53.157Z,1.30
2019-05-18T04:29:21.742Z,1.50
2019-05-18T04:31:50.729Z,1.60
2019-05-18T04:34:19.051Z,1.30
2019-05-18T04:36:47.403Z,1.70
2019-05-18T04:39:15.849Z,1.40
2019-05-18T04:41:44.192Z,1.20
2019-05-18T04:44:12.508Z,1.33
2019-05-18T04:46:47.217Z,1.40
2019-05-18T04:49:15.524Z,1.40
2019-05-18T04:51:43.801Z,1.87
2019-05-18T04:54:12.591Z,1.80
2019-05-18T04:56:43.025Z,1.70
2019-05-18T04:59:09.340Z,1.60
2019-05-18T05:01:37.772Z,1.33
2019-05-18T05:04:06.087Z,1.53
2019-05-18T05:06:34.491Z,1.70
2019-05-18T05:09:02.942Z,1.83
2019-05-18T05:11:31.266Z,1.50
2019-05-18T05:13:59.619Z,1.70
2019-05-18T05:16:28.179Z,1.50
2019-05-18T05:18:56.496Z,1.40
2019-05-18T05:21:24.798Z,1.73
2019-05-18T05:23:53.423Z,1.93
2019-05-18T05:26:21.773Z,2.37
2019-05-18T05:28:50.337Z,1.50
2019-05-18T05:31:18.881Z,1.40
2019-05-18T05:33:47.218Z,1.60
2019-05-18T05:36:15.557Z,1.50
2019-05-18T05:38:44.325Z,1.80
2019-05-18T05:41:16.486Z,1.57
2019-05-18T05:43:41.054Z,1.43
2019-05-18T05:46:09.609Z,2.10
2019-05-18T05:48:37.939Z,1.73
2019-05-18T05:51:06.267Z,1.63
2019-05-18T05:53:34.699Z,1.40
2019-05-18T05:56:03.145Z,1.90
2019-05-18T05:58:31.450Z,1.60
2019-05-18T06:01:00.350Z,1.60
2019-05-18T06:03:28.771Z,1.40
2019-05-18T06:05:57.106Z,1.50
2019-05-18T06:08:25.790Z,1.90
2019-05-18T06:10:54.092Z,1.70
2019-05-18T06:13:22.420Z,1.70
2019-05-18T06:15:51.092Z,1.50
2019-05-18T06:18:19.430Z,1.73
2019-05-18T06:20:51.292Z,1.83
2019-05-18T06:23:16.464Z,1.40
2019-05-18T06:25:44.766Z,1.73
2019-05-18T06:28:13.147Z,2.23
2019-05-18T06:30:41.611Z,1.77
2019-05-18T06:33:09.939Z,1.80
2019-05-18T06:35:38.311Z,1.97
2019-05-18T06:38:06.781Z,1.70
2019-05-18T06:40:35.169Z,2.73
2019-05-18T06:43:03.580Z,1.53
2019-05-18T06:45:32.276Z,1.60
2019-05-18T06:48:00.654Z,1.67
2019-05-18T06:50:29.467Z,1.50
2019-05-18T06:52:58.454Z,1.70
2019-05-18T06:55:26.930Z,1.80
2019-05-18T06:57:56.771Z,1.70
2019-05-18T07:00:25.222Z,1.80
2019-05-18T07:02:53.647Z,1.60
2019-05-18T07:05:22.099Z,1.80
2019-05-18T07:07:50.601Z,1.50
2019-05-18T07:10:18.987Z,1.87
2019-05-18T07:12:47.322Z,1.47
2019-05-18T07:15:15.949Z,1.90
2019-05-18T07:17:44.350Z,2.13
2019-05-18T07:20:12.849Z,1.73
2019-05-18T07:22:41.397Z,2.00
2019-05-18T07:25:09.808Z,1.63
2019-05-18T07:27:38.324Z,1.70
2019-05-18T07:30:06.793Z,2.00
2019-05-18T07:32:35.176Z,1.80
2019-05-18T07:35:03.571Z,1.60
2019-05-18T07:37:32.219Z,1.70
2019-05-18T07:40:00.718Z,1.87
2019-05-18T07:42:29.053Z,2.07
2019-05-18T07:44:57.647Z,1.67
2019-05-18T07:47:26.162Z,2.00
2019-05-18T07:49:54.463Z,2.00
2019-05-18T07:52:23.529Z,2.10
2019-05-18T07:54:51.943Z,2.33
2019-05-18T07:57:20.319Z,1.63
2019-05-18T07:59:49.174Z,2.20
2019-05-18T08:02:17.506Z,1.70
2019-05-18T08:04:45.951Z,1.90
2019-05-18T08:07:14.434Z,1.60
2019-05-18T08:09:42.771Z,1.90
2019-05-18T08:12:11.160Z,1.93
2019-05-18T08:14:39.863Z,2.30
2019-05-18T08:17:08.264Z,1.87
2019-05-18T08:19:36.651Z,1.83
2019-05-18T08:22:06.532Z,1.83
2019-05-18T08:24:34.869Z,1.83
2019-05-18T08:27:03.245Z,1.87
2019-05-18T08:29:31.834Z,2.57
2019-05-18T08:32:00.160Z,1.77
2019-05-18T08:34:28.465Z,1.93
2019-05-18T08:36:56.967Z,1.80
2019-05-18T08:39:25.484Z,2.07
2019-05-18T08:41:53.819Z,1.83
2019-05-18T08:44:22.273Z,2.23
2019-05-18T08:46:50.622Z,2.40
2019-05-18T08:49:18.950Z,2.17
2019-05-18T08:51:47.691Z,1.80
2019-05-18T08:54:22.556Z,1.77
2019-05-18T08:56:50.972Z,1.63
2019-05-18T08:59:19.349Z,2.00
2019-05-18T09:01:47.731Z,2.07
2019-05-18T09:04:16.166Z,1.80
2019-05-18T09:06:44.566Z,1.57
2019-05-18T09:09:13.068Z,1.80
2019-05-18T09:11:41.521Z,1.87
2019-05-18T09:14:09.902Z,2.40
2019-05-18T09:16:38.253Z,1.63
2019-05-18T09:19:06.761Z,1.57
2019-05-18T09:21:35.116Z,1.50
2019-05-18T09:24:10.127Z,2.30
2019-05-18T09:26:38.459Z,2.40
2019-05-18T09:29:06.854Z,2.30
2019-05-18T09:31:35.409Z,1.90
2019-05-18T09:34:03.821Z,1.67
2019-05-18T09:36:32.184Z,1.90
2019-05-18T09:39:00.628Z,1.90
2019-05-18T09:41:28.944Z,2.00
2019-05-18T09:43:57.312Z,1.80
2019-05-18T09:46:25.847Z,1.87
2019-05-18T09:48:54.186Z,2.00
2019-05-18T09:51:22.583Z,1.63
2019-05-18T09:53:52.077Z,2.00
2019-05-18T09:56:19.581Z,2.00
2019-05-18T09:58:48.002Z,1.60
2019-05-18T10:01:16.642Z,1.87
2019-05-18T10:03:44.960Z,2.00
2019-05-18T10:06:13.356Z,1.80
2019-05-18T10:08:41.863Z,2.23
2019-05-18T10:11:10.196Z,2.30
2019-05-18T10:13:38.571Z,2.93
2019-05-18T10:16:07.107Z,2.10
2019-05-18T10:18:35.547Z,1.80
2019-05-18T10:21:03.999Z,1.73
2019-05-18T10:23:32.623Z,1.90
2019-05-18T10:26:00.929Z,1.87
2019-05-18T10:28:29.270Z,2.07
2019-05-18T10:30:57.600Z,2.30
2019-05-18T10:33:25.966Z,2.23
2019-05-18T10:36:01.615Z,1.67
2019-05-18T10:38:29.936Z,2.37
2019-05-18T10:40:58.262Z,1.93
2019-05-18T10:43:26.831Z,2.33
2019-05-18T10:45:55.173Z,1.70
2019-05-18T10:48:23.515Z,2.10
2019-05-18T10:50:52.291Z,2.83
2019-05-18T10:53:28.817Z,1.70
2019-05-18T10:55:49.052Z,2.20
2019-05-18T10:58:18.203Z,1.77
2019-05-18T11:00:46.535Z,2.00
2019-05-18T11:03:14.878Z,1.73
2019-05-18T11:05:43.480Z,1.60
2019-05-18T11:08:11.785Z,1.70
2019-05-18T11:10:40.134Z,2.10
2019-05-18T11:13:09.068Z,2.03
2019-05-18T11:15:37.407Z,1.93
2019-05-18T11:18:05.783Z,1.80
2019-05-18T11:20:34.340Z,2.00
2019-05-18T11:23:02.744Z,2.47
2019-05-18T11:25:31.064Z,2.10
2019-05-18T11:27:59.682Z,2.37
2019-05-18T11:30:28.189Z,2.37
2019-05-18T11:32:56.567Z,2.40
2019-05-18T11:35:25.047Z,1.93
2019-05-18T11:37:53.388Z,1.97
2019-05-18T11:40:21.762Z,2.13
2019-05-18T11:42:50.257Z,2.23
2019-05-18T11:45:18.614Z,2.20
2019-05-18T11:47:46.966Z,2.10
2019-05-18T11:50:15.524Z,1.90
2019-05-18T11:52:43.910Z,2.20
2019-05-18T11:55:12.280Z,2.03
2019-05-18T11:57:41.112Z,1.97
2019-05-18T12:00:09.669Z,2.40
2019-05-18T12:02:38.056Z,2.30
2019-05-18T12:05:06.540Z,2.37
2019-05-18T12:07:34.939Z,1.80
2019-05-18T12:10:03.318Z,2.20
2019-05-18T12:12:31.832Z,2.10
2019-05-18T12:15:00.176Z,1.97
2019-05-18T12:17:28.516Z,2.10
2019-05-18T12:19:57.296Z,1.87
2019-05-18T12:22:25.597Z,2.13
2019-05-18T12:24:53.917Z,2.00
2019-05-18T12:27:22.605Z,2.67
2019-05-18T12:29:51.184Z,1.90
2019-05-18T12:32:19.552Z,2.37
2019-05-18T12:34:48.200Z,1.97
2019-05-18T12:37:20.796Z,2.83
2019-05-18T12:39:49.241Z,1.80
2019-05-18T12:42:17.586Z,2.07
2019-05-18T12:44:45.926Z,2.10
2019-05-18T12:47:14.675Z,2.30
2019-05-18T12:49:42.920Z,2.67
2019-05-18T12:52:11.248Z,2.10
2019-05-18T12:54:46.458Z,2.33
2019-05-18T12:57:08.336Z,2.33
2019-05-18T12:59:36.883Z,2.60
2019-05-18T13:02:05.335Z,2.40
2019-05-18T13:04:33.769Z,2.30
2019-05-18T13:07:02.121Z,2.50
2019-05-18T13:09:31.014Z,2.03
2019-05-18T13:11:59.361Z,2.00
2019-05-18T13:14:27.669Z,2.30
2019-05-18T13:16:56.123Z,2.20
2019-05-18T13:19:24.508Z,2.00
2019-05-18T13:21:52.858Z,1.97
2019-05-18T13:24:21.503Z,1.93
2019-05-18T13:26:49.990Z,2.57
2019-05-18T13:29:18.352Z,2.00
2019-05-18T13:31:46.792Z,2.27
2019-05-18T13:34:15.130Z,2.50
2019-05-18T13:36:43.732Z,2.30
2019-05-18T13:39:12.165Z,2.30
2019-05-18T13:41:40.547Z,2.30
2019-05-18T13:44:08.846Z,2.60
2019-05-18T13:46:37.311Z,2.20
2019-05-18T13:49:05.685Z,2.17
2019-05-18T13:51:34.031Z,2.40
2019-05-18T13:54:02.515Z,2.27
2019-05-18T13:56:30.819Z,2.20
2019-05-18T13:58:59.232Z,2.90
2019-05-18T14:01:28.101Z,2.23
2019-05-18T14:03:56.624Z,2.33
2019-05-18T14:06:25.200Z,2.13
2019-05-18T14:08:53.941Z,2.40
2019-05-18T14:11:22.311Z,2.20
2019-05-18T14:13:50.709Z,2.30
2019-05-18T14:16:19.156Z,2.50
2019-05-18T14:18:47.740Z,2.10
2019-05-18T14:21:16.077Z,2.60
2019-05-18T14:23:45.270Z,2.17
2019-05-18T14:26:13.711Z,1.80
2019-05-18T14:28:42.080Z,2.10
2019-05-18T14:31:10.756Z,2.10
2019-05-18T14:33:39.100Z,2.00
2019-05-18T14:36:07.500Z,1.90
2019-05-18T14:38:36.296Z,2.10
2019-05-18T14:41:04.620Z,1.80
2019-05-18T14:43:32.996Z,1.53
2019-05-18T14:46:01.341Z,1.57
2019-05-18T14:48:29.999Z,1.50
2019-05-18T14:50:58.550Z,1.63
2019-05-18T14:53:27.079Z,1.60
2019-05-18T14:55:55.438Z,1.37
2019-05-18T14:58:23.789Z,2.03
2019-05-18T15:00:52.656Z,1.40
2019-05-18T15:03:21.038Z,1.43
2019-05-18T15:05:49.358Z,1.67
2019-05-18T15:08:18.025Z,2.00
2019-05-18T15:10:46.392Z,1.73
2019-05-18T15:13:14.750Z,1.20
2019-05-18T15:15:43.273Z,2.27
2019-05-18T15:18:11.743Z,2.00
2019-05-18T15:20:40.094Z,2.00
2019-05-18T15:23:08.508Z,1.77
2019-05-18T15:25:49.659Z,2.00
2019-05-18T15:28:05.317Z,2.20
2019-05-18T15:30:33.986Z,4.70
2019-05-18T15:33:02.482Z,2.10
2019-05-18T15:35:30.817Z,1.90
2019-05-18T15:37:59.430Z,1.93
2019-05-18T15:40:27.814Z,2.00
2019-05-18T15:42:56.171Z,2.20
2019-05-18T15:45:24.924Z,2.50
2019-05-18T15:47:53.161Z,2.00
2019-05-18T15:50:21.580Z,2.30
2019-05-18T15:52:49.995Z,2.53
2019-05-18T15:55:18.379Z,2.40
2019-05-18T15:57:46.823Z,2.03
2019-05-18T16:00:15.264Z,1.80
2019-05-18T16:02:43.661Z,2.63
2019-05-18T16:05:12.049Z,1.90
2019-05-18T16:07:40.393Z,2.40
2019-05-18T16:10:08.807Z,2.07
2019-05-18T16:12:37.244Z,2.70
2019-05-18T16:15:06.638Z,4.23
2019-05-18T16:17:39.305Z,4.17
2019-05-18T16:20:03.806Z,10.67
2019-05-18T16:22:32.143Z,8.30
2019-05-18T16:25:00.445Z,8.13
2019-05-18T16:27:28.871Z,6.53
2019-05-18T16:29:57.286Z,8.90
2019-05-18T16:32:26.245Z,3.67
2019-05-18T16:34:54.594Z,2.83
2019-05-18T16:37:23.110Z,2.27
2019-05-18T16:39:51.590Z,2.00
2019-05-18T16:42:26.796Z,2.60
2019-05-18T16:44:55.150Z,2.17
2019-05-18T16:47:23.545Z,1.80
2019-05-18T16:49:52.097Z,2.03
2019-05-18T16:52:20.462Z,1.87
2019-05-18T16:54:48.798Z,2.10
2019-05-18T16:57:17.159Z,2.60
2019-05-18T16:59:46.022Z,2.07
2019-05-18T17:02:30.295Z,2.30
2019-05-18T17:04:43.259Z,2.03
2019-05-18T17:07:11.657Z,3.13
2019-05-18T17:09:39.970Z,2.00
2019-05-18T17:12:08.583Z,2.37
2019-05-18T17:14:36.967Z,1.87
2019-05-18T17:17:05.319Z,2.00
2019-05-18T17:19:33.755Z,2.33
2019-05-18T17:22:02.122Z,2.20
2019-05-18T17:24:30.501Z,2.50
2019-05-18T17:26:58.867Z,2.17
2019-05-18T17:29:27.233Z,2.03
2019-05-18T17:31:55.728Z,2.43
2019-05-18T17:34:24.277Z,2.90
2019-05-18T17:36:52.850Z,2.40
2019-05-18T17:39:21.190Z,2.47
2019-05-18T17:41:50.036Z,2.30
2019-05-18T17:44:18.546Z,2.53
2019-05-18T17:46:46.886Z,2.17
2019-05-18T17:49:26.480Z,2.07
2019-05-18T17:51:43.630Z,2.50
2019-05-18T17:54:11.956Z,2.57
2019-05-18T17:56:40.620Z,2.40
2019-05-18T17:59:08.940Z,2.33
2019-05-18T18:01:37.271Z,2.30
2019-05-18T18:04:06.075Z,3.10
2019-05-18T18:06:34.462Z,2.17
2019-05-18T18:09:02.873Z,2.37
2019-05-18T18:11:31.325Z,2.50
2019-05-18T18:13:59.618Z,4.17
2019-05-18T18:16:27.985Z,2.20
2019-05-18T18:18:56.623Z,2.43
2019-05-18T18:21:25.026Z,3.30
2019-05-18T18:23:55.227Z,2.93
2019-05-18T18:26:21.799Z,2.73
2019-05-18T18:28:50.099Z,2.67
2019-05-18T18:31:18.973Z,2.63
2019-05-18T18:33:47.651Z,2.30
2019-05-18T18:36:15.975Z,2.47
2019-05-18T18:38:44.332Z,2.40
2019-05-18T18:41:12.746Z,2.67
2019-05-18T18:43:41.121Z,2.20
2019-05-18T18:46:09.480Z,2.90
2019-05-18T18:48:37.962Z,2.70
2019-05-18T18:51:06.613Z,2.67
2019-05-18T18:53:34.970Z,2.67
2019-05-18T18:56:03.453Z,2.40
2019-05-18T18:58:31.782Z,2.77
2019-05-18T19:01:00.201Z,2.27
2019-05-18T19:03:28.812Z,2.57
2019-05-18T19:05:57.135Z,2.50
2019-05-18T19:08:25.474Z,2.70
2019-05-18T19:10:53.954Z,2.90
2019-05-18T19:13:22.293Z,2.60
2019-05-18T19:15:50.612Z,2.80
2019-05-18T19:18:19.112Z,2.50
2019-05-18T19:20:47.444Z,2.10
2019-05-18T19:23:15.736Z,2.67
2019-05-18T19:25:44.527Z,2.30
2019-05-18T19:28:12.874Z,2.40
2019-05-18T19:30:41.271Z,2.70
2019-05-18T19:33:09.593Z,2.90
2019-05-18T19:35:37.985Z,2.73
2019-05-18T19:38:06.298Z,2.27
2019-05-18T19:40:34.871Z,2.50
2019-05-18T19:43:03.312Z,2.30
2019-05-18T19:45:31.713Z,2.10
2019-05-18T19:48:00.146Z,2.07
2019-05-18T19:50:28.519Z,2.07
2019-05-18T19:53:03.568Z,2.20
2019-05-18T19:55:31.940Z,2.43
2019-05-18T19:58:08.498Z,1.80
2019-05-18T20:00:29.041Z,2.43
2019-05-18T20:02:57.432Z,2.40
2019-05-18T20:05:25.779Z,2.20
2019-05-18T20:07:54.127Z,2.30
2019-05-18T20:10:22.720Z,2.50
2019-05-18T20:12:51.102Z,2.07
2019-05-18T20:15:19.635Z,2.20
2019-05-18T20:17:47.950Z,1.77
2019-05-18T20:20:16.314Z,2.20
2019-05-18T20:22:45.078Z,1.90
2019-05-18T20:25:13.483Z,2.40
2019-05-18T20:27:42.113Z,2.53
2019-05-18T20:30:10.847Z,2.70
2019-05-18T20:32:39.276Z,1.80
2019-05-18T20:35:07.732Z,2.40
2019-05-18T20:37:36.089Z,2.30
2019-05-18T20:40:04.697Z,2.70
2019-05-18T20:42:33.037Z,2.30
2019-05-18T20:45:01.389Z,2.17
2019-05-18T20:47:29.781Z,2.20
2019-05-18T20:49:58.127Z,2.27
2019-05-18T20:52:26.890Z,2.23
2019-05-18T20:54:55.225Z,2.17
2019-05-18T20:57:23.718Z,2.07
2019-05-18T20:59:52.345Z,2.03
2019-05-18T21:02:20.701Z,1.77
2019-05-18T21:04:49.044Z,1.67
2019-05-18T21:07:17.603Z,1.70
2019-05-18T21:09:45.954Z,2.10
2019-05-18T21:12:14.278Z,1.87
2019-05-18T21:14:42.756Z,1.80
2019-05-18T21:17:11.091Z,1.90
2019-05-18T21:19:39.429Z,2.07
2019-05-18T21:22:07.900Z,2.40
2019-05-18T21:24:36.398Z,2.27
2019-05-18T21:27:04.725Z,1.83
2019-05-18T21:29:33.596Z,1.70
2019-05-18T21:32:01.975Z,2.00
2019-05-18T21:34:30.286Z,2.00
2019-05-18T21:36:58.896Z,2.20
2019-05-18T21:39:27.254Z,2.40
2019-05-18T21:41:55.673Z,2.70
2019-05-18T21:44:24.481Z,2.97
2019-05-18T21:46:52.858Z,2.40
2019-05-18T21:49:21.238Z,2.60
2019-05-18T21:51:49.690Z,3.03
2019-05-18T21:54:18.024Z,3.47
2019-05-18T21:56:46.370Z,3.70
2019-05-18T21:59:14.946Z,3.73
2019-05-18T22:01:43.275Z,3.30
2019-05-18T22:04:11.626Z,3.83
2019-05-18T22:06:40.501Z,2.93
2019-05-18T22:09:08.818Z,3.53
2019-05-18T22:11:37.270Z,4.60
2019-05-18T22:14:05.893Z,3.30
2019-05-18T22:16:34.265Z,3.63
2019-05-18T22:19:02.607Z,3.87
2019-05-18T22:21:31.250Z,3.90
2019-05-18T22:23:59.636Z,3.60
2019-05-18T22:26:27.965Z,3.73
2019-05-18T22:28:56.695Z,3.90
2019-05-18T22:31:25.050Z,3.50
2019-05-18T22:33:53.384Z,3.60
2019-05-18T22:36:22.273Z,3.60
2019-05-18T22:38:50.625Z,3.50
2019-05-18T22:41:18.976Z,3.93
2019-05-18T22:43:47.577Z,3.73
2019-05-18T22:46:15.889Z,3.60
2019-05-18T22:48:44.221Z,3.83
2019-05-18T22:51:13.042Z,4.17
2019-05-18T22:53:41.647Z,3.90
2019-05-18T22:56:09.972Z,3.53
2019-05-18T22:58:38.918Z,3.60
2019-05-18T23:01:07.241Z,3.67
2019-05-18T23:03:35.627Z,4.17
2019-05-18T23:06:04.081Z,4.13
2019-05-18T23:08:33.363Z,3.93
2019-05-18T23:11:01.709Z,3.30
2019-05-18T23:13:30.442Z,2.90
2019-05-18T23:15:58.790Z,3.60
2019-05-18T23:18:27.065Z,3.60
2019-05-18T23:20:55.564Z,3.27
2019-05-18T23:23:23.897Z,3.47
2019-05-18T23:25:52.233Z,3.77
2019-05-18T23:28:20.664Z,4.10
2019-05-18T23:30:48.989Z,3.27
2019-05-18T23:33:17.362Z,3.77
2019-05-18T23:35:45.917Z,4.00
2019-05-18T23:38:14.285Z,3.80
2019-05-18T23:40:43.031Z,3.70
2019-05-18T23:43:11.570Z,3.90
2019-05-18T23:45:39.925Z,3.40
2019-05-18T23:48:08.258Z,4.00
2019-05-18T23:50:36.719Z,3.83
2019-05-18T23:53:05.067Z,3.50
2019-05-18T23:55:33.523Z,3.43
2019-05-18T23:58:05.924Z,3.13
